Portada
METAR-TAF:

METAR-TAF

Aeroports :

Lo Mont, França

latitud: 43-55N, longitud: 000-30W, altitud: 62 m

Observació

L'informe es va fer fa 20 minuts, a les 08:30 UTC
Vent 5 kt del Est, variant entre Nord-Est i Sud-Est
Temperatura 21°C
Humitat 83%
Pressió 1011 hPa
Visibilitat 10 km o més
sense núvols per sota de 1500 mi sense presència de cumulonimbus.

METAR: LFBM 210830Z AUTO 10005KT 050V130 CAVOK 21/18 Q1011 NOSIG

Hora: 10:50 (08:50 UTC)

Pronòstic

L'informe es va fer fa 50 minuts, a les 08:00 UTC
Pronòstic vàlid del 21 a les 09 UTC al 22 a les 09 UTC
Vent 5 kt del Est/Sud-Est
Visibilitat 10 km o més
sense núvols per sota de 1500 mi sense presència de cumulonimbus.

TAF: LFBM 210800Z 2109/2209 12005KT CAVOK

Observacions i pronòstics meteorològics de més de 4000 aeroports (METAR i TAF).

Les estacions disponibles són els punts grocs i vermells al mapa.

Posi el ratolí al punt desitjat per veure el nom de l'estació.

Feu clic per veure les observacions i els pronòstics meteorològics.

Per canviar el mapa: feu clic els botons verds amb una creu de color negre per apropar; al botó verd amb un guió per allunyar la imatge; o en les fletxes verdes per a mapes adjacents.


METAR-TAF: